createdAt,value
2023-04-22T00:00:54.855Z,101018.09
2023-04-22T00:03:58.483Z,101016.88
2023-04-22T00:07:02.227Z,101020.63
2023-04-22T00:10:06.568Z,101008.31
2023-04-22T00:13:09.774Z,101007.59
2023-04-22T00:16:14.249Z,101005.00
2023-04-22T00:19:17.385Z,101002.28
2023-04-22T00:22:20.453Z,100986.81
2023-04-22T00:25:26.507Z,100986.72
2023-04-22T00:28:29.916Z,100990.06
2023-04-22T00:31:34.518Z,100986.53
2023-04-22T00:34:37.873Z,100984.84
2023-04-22T00:37:43.995Z,100986.63
2023-04-22T00:40:47.077Z,100983.72
2023-04-22T00:43:52.431Z,100982.97
2023-04-22T00:47:00.474Z,100982.03
2023-04-22T00:50:19.572Z,100978.28
2023-04-22T00:53:23.049Z,100977.22
2023-04-22T00:56:30.452Z,100976.81
2023-04-22T00:59:33.683Z,100972.84
2023-04-22T01:02:39.607Z,100964.91
2023-04-22T01:05:43.469Z,100968.53
2023-04-22T01:08:59.074Z,100965.94
2023-04-22T01:12:02.425Z,100968.66
2023-04-22T01:15:12.371Z,100971.91
2023-04-22T01:18:16.891Z,100970.00
2023-04-22T01:21:48.997Z,100968.03
2023-04-22T01:36:55.615Z,100957.38
2023-04-22T01:40:32.594Z,100961.94
2023-04-22T01:44:11.104Z,100954.88
2023-04-22T01:51:21.799Z,100945.38
2023-04-22T01:54:24.964Z,100945.78
2023-04-22T01:57:30.584Z,100943.16
2023-04-22T02:00:33.831Z,100938.78
2023-04-22T02:03:44.568Z,100940.00
2023-04-22T02:06:49.716Z,100938.78
2023-04-22T02:09:53.953Z,100936.38
2023-04-22T02:12:58.796Z,100939.72
2023-04-22T02:16:03.638Z,100936.59
2023-04-22T02:19:09.000Z,100930.38
2023-04-22T02:22:13.784Z,100926.72
2023-04-22T02:25:18.846Z,100926.19
2023-04-22T02:28:23.557Z,100923.09
2023-04-22T02:31:32.410Z,100916.75
2023-04-22T02:34:36.465Z,100913.53
2023-04-22T02:37:42.269Z,100909.16
2023-04-22T02:40:45.596Z,100903.53
2023-04-22T02:43:52.857Z,100903.00
2023-04-22T02:46:59.016Z,100899.03
2023-04-22T02:50:02.401Z,100900.59
2023-04-22T02:53:05.486Z,100893.66
2023-04-22T02:56:11.871Z,100897.69
2023-04-22T02:59:16.321Z,100894.66
2023-04-22T03:02:19.767Z,100895.38
2023-04-22T03:09:22.005Z,100894.34
2023-04-22T03:12:26.291Z,100891.63
2023-04-22T03:15:30.755Z,100884.75
2023-04-22T03:18:33.976Z,100887.22
2023-04-22T03:21:37.267Z,100888.47
2023-04-22T03:24:40.453Z,100885.09
2023-04-22T03:27:54.018Z,100893.78
2023-04-22T03:30:58.449Z,100888.38
2023-04-22T03:34:01.572Z,100884.88
2023-04-22T03:37:07.361Z,100890.06
2023-04-22T03:40:13.687Z,100893.25
2023-04-22T03:43:17.412Z,100891.97
2023-04-22T03:46:30.247Z,100889.72
2023-04-22T03:49:46.437Z,100892.00
2023-04-22T03:52:49.900Z,100894.78
2023-04-22T03:55:56.437Z,100896.09
2023-04-22T03:59:00.389Z,100892.00
2023-04-22T04:02:05.148Z,100891.66
2023-04-22T04:05:11.062Z,100899.44
2023-04-22T04:08:15.898Z,100892.03
2023-04-22T04:11:31.424Z,100897.22
2023-04-22T04:14:37.767Z,100899.28
2023-04-22T04:17:43.597Z,100903.91
2023-04-22T04:20:49.153Z,100903.34
2023-04-22T04:23:54.724Z,100905.00
2023-04-22T04:27:03.125Z,100901.13
2023-04-22T04:30:14.472Z,100898.25
2023-04-22T04:33:23.145Z,100898.16
2023-04-22T04:36:29.114Z,100899.72
2023-04-22T04:39:42.320Z,100903.91
2023-04-22T04:42:46.613Z,100902.31
2023-04-22T04:45:58.592Z,100895.91
2023-04-22T04:49:12.565Z,100894.91
2023-04-22T04:52:28.041Z,100900.84
2023-04-22T04:55:31.405Z,100901.50
2023-04-22T04:58:35.581Z,100900.56
2023-04-22T05:01:48.263Z,100905.38
2023-04-22T05:04:53.013Z,100902.59
2023-04-22T05:07:56.754Z,100901.66
2023-04-22T05:11:00.696Z,100899.06
2023-04-22T05:14:04.162Z,100898.84
2023-04-22T05:17:11.117Z,100899.63
2023-04-22T05:20:15.516Z,100899.41
2023-04-22T05:23:18.563Z,100897.34
2023-04-22T05:26:23.336Z,100892.59
2023-04-22T05:29:29.501Z,100896.03
2023-04-22T05:32:35.735Z,100894.81
2023-04-22T05:35:40.553Z,100903.25
2023-04-22T05:38:46.847Z,100893.19
2023-04-22T05:41:54.656Z,100894.09
2023-04-22T05:44:59.281Z,100903.16
2023-04-22T05:48:02.405Z,100890.69
2023-04-22T05:51:10.575Z,100891.66
2023-04-22T05:54:14.414Z,100891.94
2023-04-22T05:57:18.088Z,100891.09
2023-04-22T06:00:21.274Z,100898.31
2023-04-22T06:03:37.744Z,100889.16
2023-04-22T06:06:42.472Z,100888.31
2023-04-22T06:09:45.653Z,100888.84
2023-04-22T06:12:53.080Z,100892.31
2023-04-22T06:15:56.908Z,100890.31
2023-04-22T06:18:59.993Z,100890.50
2023-04-22T06:22:05.500Z,100892.16
2023-04-22T06:25:09.477Z,100888.25
2023-04-22T06:28:13.953Z,100895.09
2023-04-22T06:31:18.819Z,100888.06
2023-04-22T06:34:23.766Z,100893.53
2023-04-22T06:41:50.384Z,100889.44
2023-04-22T06:46:14.772Z,100887.13
2023-04-22T06:49:45.768Z,100871.94
2023-04-22T06:53:00.527Z,100871.34
2023-04-22T06:56:39.337Z,100874.47
2023-04-22T07:00:05.605Z,100879.19
2023-04-22T07:03:22.424Z,100879.53
2023-04-22T07:07:12.292Z,100872.94
2023-04-22T07:10:36.676Z,100866.47
2023-04-22T07:14:26.197Z,100867.88
2023-04-22T07:17:29.565Z,100879.09
2023-04-22T07:20:32.914Z,100872.09
2023-04-22T07:23:39.806Z,100876.69
2023-04-22T07:26:46.654Z,100885.47
2023-04-22T07:29:55.770Z,100872.69
2023-04-22T07:33:02.213Z,100871.25
2023-04-22T07:36:07.228Z,100872.31
2023-04-22T07:39:12.933Z,100869.53
2023-04-22T07:42:20.621Z,100871.53
2023-04-22T07:45:23.884Z,100866.31
2023-04-22T07:48:29.842Z,100874.91
2023-04-22T07:51:33.324Z,100867.75
2023-04-22T07:54:39.271Z,100855.56
2023-04-22T07:57:43.729Z,100865.78
2023-04-22T08:00:47.415Z,100856.75
2023-04-22T08:03:51.257Z,100851.91
2023-04-22T08:06:56.940Z,100846.88
2023-04-22T08:10:00.751Z,100851.00
2023-04-22T08:13:06.048Z,100843.47
2023-04-22T08:16:09.411Z,100834.00
2023-04-22T08:19:15.087Z,100837.84
2023-04-22T08:22:29.976Z,100835.66
2023-04-22T08:25:37.681Z,100833.84
2023-04-22T08:28:46.962Z,100825.22
2023-04-22T08:31:53.560Z,100833.63
2023-04-22T08:35:05.454Z,100822.91
2023-04-22T08:38:12.266Z,100826.13
2023-04-22T08:41:16.438Z,100820.78
2023-04-22T08:44:23.554Z,100822.84
2023-04-22T08:47:34.000Z,100826.94
2023-04-22T08:50:56.328Z,100822.16
2023-04-22T08:54:00.468Z,100824.28
2023-04-22T08:57:03.770Z,100828.38
2023-04-22T09:00:10.050Z,100825.16
2023-04-22T09:06:39.919Z,100817.28
2023-04-22T09:09:46.910Z,100825.59
2023-04-22T09:12:54.140Z,100818.84
2023-04-22T09:15:59.979Z,100819.50
2023-04-22T09:19:08.325Z,100814.72
2023-04-22T09:22:14.519Z,100810.41
2023-04-22T09:25:24.026Z,100810.91
2023-04-22T09:28:28.469Z,100796.00
2023-04-22T09:31:34.144Z,100793.03
2023-04-22T09:34:50.976Z,100792.81
2023-04-22T09:37:54.757Z,100782.78
2023-04-22T09:41:01.087Z,100786.38
2023-04-22T09:44:08.108Z,100784.81
2023-04-22T09:47:15.010Z,100778.22
2023-04-22T09:50:32.131Z,100786.59
2023-04-22T09:53:38.822Z,100784.63
2023-04-22T09:56:49.645Z,100772.94
2023-04-22T09:59:56.173Z,100761.84
2023-04-22T10:03:02.151Z,100763.34
2023-04-22T10:06:24.299Z,100762.75
2023-04-22T10:09:28.992Z,100757.00
2023-04-22T10:12:35.961Z,100762.41
2023-04-22T10:15:44.175Z,100752.28
2023-04-22T10:18:50.285Z,100756.28
2023-04-22T10:21:57.302Z,100753.63
2023-04-22T10:25:00.480Z,100738.50
2023-04-22T10:32:10.258Z,100728.34
2023-04-22T10:35:21.628Z,100728.34
2023-04-22T10:38:27.898Z,100719.59
2023-04-22T10:41:36.767Z,100720.41
2023-04-22T10:44:54.076Z,100728.31
2023-04-22T10:48:18.432Z,100721.97
2023-04-22T10:51:53.764Z,100717.81
2023-04-22T10:56:17.322Z,100709.59
2023-04-22T10:59:30.143Z,100707.25
2023-04-22T11:08:07.356Z,100699.72
2023-04-22T11:11:13.810Z,100693.44
2023-04-22T11:14:22.922Z,100687.81
2023-04-22T11:17:27.790Z,100689.84
2023-04-22T11:20:31.892Z,100684.50
2023-04-22T11:23:37.067Z,100680.28
2023-04-22T11:26:41.427Z,100679.88
2023-04-22T11:30:00.853Z,100682.56
2023-04-22T11:33:43.827Z,100675.94
2023-04-22T11:36:50.074Z,100665.22
2023-04-22T11:43:15.116Z,100662.97
2023-04-22T11:46:29.431Z,100664.63
2023-04-22T11:49:33.684Z,100652.19
2023-04-22T11:52:53.417Z,100657.53
2023-04-22T11:55:58.152Z,100651.44
2023-04-22T11:59:11.252Z,100655.13
2023-04-22T12:02:14.761Z,100659.34
2023-04-22T12:05:17.983Z,100642.19
2023-04-22T12:08:24.740Z,100640.44
2023-04-22T12:11:29.568Z,100639.75
2023-04-22T12:14:36.194Z,100650.03
2023-04-22T12:17:52.292Z,100641.19
2023-04-22T12:20:56.057Z,100631.84
2023-04-22T12:24:11.538Z,100630.28
2023-04-22T12:27:18.774Z,100641.06
2023-04-22T12:30:23.607Z,100641.69
2023-04-22T12:33:28.217Z,100628.06
2023-04-22T12:40:20.688Z,100624.19
2023-04-22T12:43:30.505Z,100620.63
2023-04-22T12:46:49.405Z,100628.66
2023-04-22T12:50:01.448Z,100614.97
2023-04-22T12:53:05.430Z,100613.38
2023-04-22T12:56:17.499Z,100616.00
2023-04-22T13:03:58.709Z,100603.44
2023-04-22T13:07:05.134Z,100603.41
2023-04-22T13:10:12.109Z,100602.25
2023-04-22T13:13:19.042Z,100594.03
2023-04-22T13:16:27.988Z,100593.63
2023-04-22T13:19:52.780Z,100598.38
2023-04-22T13:22:56.501Z,100587.47
2023-04-22T13:26:01.806Z,100583.81
2023-04-22T13:29:11.109Z,100583.75
2023-04-22T13:32:21.592Z,100586.44
2023-04-22T13:35:27.960Z,100580.72
2023-04-22T13:38:37.122Z,100576.81
2023-04-22T13:41:47.963Z,100564.09
2023-04-22T13:45:07.991Z,100573.72
2023-04-22T13:48:16.055Z,100561.13
2023-04-22T13:51:21.372Z,100557.47
2023-04-22T13:54:28.441Z,100556.75
2023-04-22T13:57:49.144Z,100551.75
2023-04-22T14:01:07.548Z,100546.53
2023-04-22T14:04:13.994Z,100541.38
2023-04-22T14:07:17.908Z,100534.13
2023-04-22T14:10:32.669Z,100536.47
2023-04-22T14:13:41.174Z,100530.91
2023-04-22T14:16:55.159Z,100519.06
2023-04-22T14:20:02.741Z,100521.75
2023-04-22T14:23:06.412Z,100520.66
2023-04-22T14:26:13.214Z,100518.09
2023-04-22T14:29:29.748Z,100505.88
2023-04-22T14:32:33.704Z,100501.59
2023-04-22T14:35:51.265Z,100494.22
2023-04-22T14:38:58.196Z,100498.72
2023-04-22T14:42:02.580Z,100495.84
2023-04-22T14:45:07.425Z,100490.06
2023-04-22T14:48:15.540Z,100492.50
2023-04-22T14:51:23.239Z,100491.19
2023-04-22T14:54:26.636Z,100483.47
2023-04-22T14:57:37.351Z,100490.09
2023-04-22T15:00:42.571Z,100488.09
2023-04-22T15:03:55.528Z,100481.91
2023-04-22T15:07:01.213Z,100466.41
2023-04-22T15:10:05.331Z,100470.41
2023-04-22T15:13:10.300Z,100466.88
2023-04-22T15:16:16.921Z,100461.44
2023-04-22T15:19:21.297Z,100460.91
2023-04-22T15:22:37.694Z,100459.53
2023-04-22T15:25:47.666Z,100465.97
2023-04-22T15:28:56.040Z,100451.16
2023-04-22T15:32:04.772Z,100445.53
2023-04-22T15:35:11.763Z,100451.28
2023-04-22T15:38:19.866Z,100442.75
2023-04-22T15:41:24.167Z,100443.56
2023-04-22T15:44:28.347Z,100443.09
2023-04-22T15:47:31.727Z,100437.06
2023-04-22T15:50:34.764Z,100440.31
2023-04-22T15:53:45.307Z,100436.44
2023-04-22T15:56:48.394Z,100439.13
2023-04-22T16:00:02.878Z,100428.53
2023-04-22T16:03:20.461Z,100422.03
2023-04-22T16:06:24.084Z,100414.31
2023-04-22T16:09:34.491Z,100402.47
2023-04-22T16:12:38.775Z,100405.72
2023-04-22T16:16:11.723Z,100402.00
2023-04-22T16:19:48.401Z,100396.94
2023-04-22T16:22:53.006Z,100391.25
2023-04-22T16:29:56.269Z,100393.00
2023-04-22T16:38:13.167Z,100382.09
2023-04-22T16:41:43.027Z,100380.66
2023-04-22T16:45:06.087Z,100377.81
2023-04-22T16:48:11.595Z,100375.75
2023-04-22T16:51:14.874Z,100376.09
2023-04-22T16:54:18.457Z,100371.59
2023-04-22T16:57:22.792Z,100378.53
2023-04-22T17:00:25.850Z,100366.66
2023-04-22T17:03:29.506Z,100372.97
2023-04-22T17:06:33.114Z,100357.94
2023-04-22T17:09:36.390Z,100370.25
2023-04-22T17:12:40.754Z,100371.19
2023-04-22T17:15:44.351Z,100373.69
2023-04-22T17:18:50.240Z,100374.31
2023-04-22T17:21:55.563Z,100368.41
2023-04-22T17:24:58.910Z,100372.63
2023-04-22T17:28:03.423Z,100371.44
2023-04-22T17:31:06.492Z,100362.88
2023-04-22T17:34:09.549Z,100360.56
2023-04-22T17:37:15.593Z,100360.28
2023-04-22T17:40:18.840Z,100364.78
2023-04-22T17:43:24.776Z,100367.53
2023-04-22T17:46:27.793Z,100364.88
2023-04-22T17:49:30.844Z,100366.44
2023-04-22T17:52:36.837Z,100372.88
2023-04-22T17:55:40.605Z,100368.00
2023-04-22T17:58:56.500Z,100366.63
2023-04-22T18:02:01.067Z,100369.44
2023-04-22T18:05:05.535Z,100370.06
2023-04-22T18:08:10.373Z,100364.66
2023-04-22T18:11:13.628Z,100362.13
2023-04-22T18:14:20.732Z,100369.63
2023-04-22T18:17:24.287Z,100374.09
2023-04-22T18:20:27.477Z,100380.09
2023-04-22T18:23:30.705Z,100372.50
2023-04-22T18:26:33.768Z,100380.16
2023-04-22T18:29:41.314Z,100380.16
2023-04-22T18:32:45.310Z,100382.84
2023-04-22T18:35:51.487Z,100381.09
2023-04-22T18:38:54.621Z,100377.41
2023-04-22T18:41:59.641Z,100381.84
2023-04-22T18:45:08.401Z,100382.47
2023-04-22T18:48:11.744Z,100380.69
2023-04-22T18:51:14.809Z,100386.81
2023-04-22T18:54:21.118Z,100387.63
2023-04-22T18:57:24.266Z,100385.97
2023-04-22T19:00:28.917Z,100383.19
2023-04-22T19:03:32.561Z,100382.00
2023-04-22T19:06:35.776Z,100382.84
2023-04-22T19:09:40.097Z,100387.41
2023-04-22T19:12:43.169Z,100388.19
2023-04-22T19:15:47.529Z,100388.81
2023-04-22T19:18:51.259Z,100386.84
2023-04-22T19:21:54.531Z,100380.56
2023-04-22T19:24:58.637Z,100381.25
2023-04-22T19:28:01.666Z,100383.69
2023-04-22T19:31:06.263Z,100378.72
2023-04-22T19:34:10.565Z,100374.44
2023-04-22T19:37:14.410Z,100377.81
2023-04-22T19:40:18.751Z,100377.75
2023-04-22T19:43:22.679Z,100372.50
2023-04-22T19:46:27.057Z,100364.25
2023-04-22T19:49:32.418Z,100361.97
2023-04-22T19:52:36.295Z,100361.91
2023-04-22T19:55:45.161Z,100365.31
2023-04-22T19:58:49.061Z,100363.84
2023-04-22T20:01:54.482Z,100355.25
2023-04-22T20:04:58.067Z,100357.13
2023-04-22T20:08:01.892Z,100350.88
2023-04-22T20:11:05.674Z,100349.38
2023-04-22T20:14:09.798Z,100341.59
2023-04-22T20:17:14.429Z,100344.59
2023-04-22T20:20:17.904Z,100335.97
2023-04-22T20:23:24.744Z,100342.06
2023-04-22T20:26:28.478Z,100344.38
2023-04-22T20:29:35.959Z,100339.34
2023-04-22T20:32:41.374Z,100333.88
2023-04-22T20:35:44.766Z,100332.69
2023-04-22T20:38:50.891Z,100332.88
2023-04-22T20:41:56.340Z,100335.31
2023-04-22T20:44:59.558Z,100329.66
2023-04-22T20:48:04.196Z,100330.06
2023-04-22T20:51:10.322Z,100313.84
2023-04-22T20:54:27.697Z,100312.72
2023-04-22T20:57:32.261Z,100309.34
2023-04-22T21:00:35.956Z,100308.97
2023-04-22T21:03:41.168Z,100305.91
2023-04-22T21:06:48.499Z,100314.56
2023-04-22T21:09:52.373Z,100307.63
2023-04-22T21:12:55.998Z,100310.09
2023-04-22T21:16:03.138Z,100313.88
2023-04-22T21:19:08.321Z,100304.00
2023-04-22T21:22:11.954Z,100298.19
2023-04-22T21:25:22.104Z,100299.63
2023-04-22T21:28:25.902Z,100294.31
2023-04-22T21:31:43.098Z,100296.31
2023-04-22T21:34:50.552Z,100298.50
2023-04-22T21:37:54.072Z,100295.03
2023-04-22T21:40:57.327Z,100288.56
2023-04-22T21:44:01.046Z,100290.47
2023-04-22T21:47:04.365Z,100288.28
2023-04-22T21:50:09.959Z,100288.56
2023-04-22T21:53:13.244Z,100276.66
2023-04-22T21:56:16.443Z,100279.56
2023-04-22T21:59:24.615Z,100281.13
2023-04-22T22:02:27.726Z,100285.22
2023-04-22T22:05:32.187Z,100281.84
2023-04-22T22:08:35.327Z,100281.03
2023-04-22T22:11:38.417Z,100274.78
2023-04-22T22:14:44.779Z,100274.91
2023-04-22T22:17:47.857Z,100273.22
2023-04-22T22:20:54.901Z,100277.66
2023-04-22T22:24:00.559Z,100276.31
2023-04-22T22:27:07.287Z,100278.69
2023-04-22T22:30:10.845Z,100270.81
2023-04-22T22:33:14.580Z,100274.50
2023-04-22T22:36:34.916Z,100269.69
2023-04-22T22:39:48.290Z,100267.81
2023-04-22T22:42:51.241Z,100266.84
2023-04-22T22:45:54.965Z,100273.59
2023-04-22T22:48:59.326Z,100266.75
2023-04-22T22:52:03.971Z,100273.94
2023-04-22T22:55:08.638Z,100266.75
2023-04-22T22:58:11.678Z,100268.19
2023-04-22T23:01:15.589Z,100271.00
2023-04-22T23:04:21.069Z,100259.94
2023-04-22T23:07:25.812Z,100251.84
2023-04-22T23:10:28.805Z,100257.00
2023-04-22T23:13:32.285Z,100249.38
2023-04-22T23:16:35.372Z,100246.44
2023-04-22T23:19:41.856Z,100240.25
2023-04-22T23:22:47.763Z,100238.88
2023-04-22T23:25:51.884Z,100241.78
2023-04-22T23:28:55.877Z,100236.53
2023-04-22T23:32:02.004Z,100231.63
2023-04-22T23:35:07.867Z,100227.34
2023-04-22T23:38:12.437Z,100223.63
2023-04-22T23:41:15.399Z,100217.88
2023-04-22T23:44:18.732Z,100212.09
2023-04-22T23:47:22.039Z,100215.97
2023-04-22T23:50:25.144Z,100213.91
2023-04-22T23:53:29.521Z,100209.78
2023-04-22T23:56:35.551Z,100215.84
2023-04-22T23:59:41.172Z,100218.50
